SCO15CS EGPH-EGAA
Flight info
| Callsign | SCO15CS |
|---|---|
| Flight time | 0h 35m |
| Altitude | 18000 |
| Route | GOSAM P600 BLACA DCT BELZU |
| Aircraft | A319/M-SDE3FGHIRWY/LB1 |
Departure
| Time | 2026-04-21 22:18 |
|---|---|
| Airport | Edinburgh Airport (EGPH) |
Arrival
| Time | 2026-04-21 22:53 |
|---|---|
| Airport | Belfast International Airport (EGAA) |
| Time | Latitude | Longitude | Altitude | Speed | Heading |
|---|---|---|---|---|---|
| 2026-04-21 21:58 | 55.94657 | -3.36612 | 117 ft | 0 kts | 89° |
| 2026-04-21 22:09 | 55.94657 | -3.36635 | 113 ft | 3 kts | 89° |
| 2026-04-21 22:09 | 55.94656 | -3.36671 | 114 ft | 3 kts | 89° |
| 2026-04-21 22:10 | 55.94656 | -3.36707 | 114 ft | 3 kts | 89° |
| 2026-04-21 22:10 | 55.94656 | -3.36740 | 114 ft | 2 kts | 89° |
| 2026-04-21 22:10 | 55.94656 | -3.36746 | 114 ft | 0 kts | 89° |
| 2026-04-21 22:13 | 55.94658 | -3.36739 | 116 ft | 1 kts | 62° |
| 2026-04-21 22:13 | 55.94679 | -3.36738 | 115 ft | 11 kts | 2° |
| 2026-04-21 22:13 | 55.94765 | -3.36760 | 113 ft | 13 kts | 337° |
| 2026-04-21 22:13 | 55.94859 | -3.36776 | 116 ft | 14 kts | 357° |
| 2026-04-21 22:14 | 55.94927 | -3.36887 | 114 ft | 14 kts | 263° |
| 2026-04-21 22:14 | 55.94876 | -3.37046 | 116 ft | 15 kts | 239° |
| 2026-04-21 22:14 | 55.94819 | -3.37213 | 116 ft | 16 kts | 238° |
| 2026-04-21 22:14 | 55.94757 | -3.37392 | 116 ft | 17 kts | 240° |
| 2026-04-21 22:15 | 55.94695 | -3.37583 | 114 ft | 18 kts | 237° |
| 2026-04-21 22:15 | 55.94626 | -3.37779 | 115 ft | 19 kts | 238° |
| 2026-04-21 22:15 | 55.94556 | -3.37990 | 114 ft | 20 kts | 239° |
| 2026-04-21 22:15 | 55.94481 | -3.38208 | 114 ft | 21 kts | 238° |
| 2026-04-21 22:16 | 55.94404 | -3.38436 | 116 ft | 22 kts | 239° |
| 2026-04-21 22:16 | 55.94324 | -3.38672 | 115 ft | 23 kts | 238° |
| 2026-04-21 22:16 | 55.94305 | -3.38887 | 114 ft | 17 kts | 325° |
| 2026-04-21 22:16 | 55.94411 | -3.38960 | 114 ft | 15 kts | 29° |
| 2026-04-21 22:17 | 55.94462 | -3.38835 | 114 ft | 12 kts | 58° |
| 2026-04-21 22:17 | 55.94479 | -3.38784 | 114 ft | 2 kts | 59° |
| 2026-04-21 22:17 | 55.94494 | -3.38740 | 113 ft | 9 kts | 58° |
| 2026-04-21 22:17 | 55.94670 | -3.38220 | 115 ft | 91 kts | 59° |
| 2026-04-21 22:18 | 55.95116 | -3.36905 | 250 ft | 142 kts | 59° |
| 2026-04-21 22:18 | 55.95635 | -3.35360 | 958 ft | 150 kts | 60° |
| 2026-04-21 22:18 | 55.96307 | -3.33777 | 1474 ft | 173 kts | 46° |
| 2026-04-21 22:18 | 55.97264 | -3.32238 | 1915 ft | 197 kts | 44° |
| 2026-04-21 22:19 | 55.98310 | -3.30560 | 2811 ft | 204 kts | 45° |
| 2026-04-21 22:19 | 55.99396 | -3.28875 | 3782 ft | 215 kts | 39° |
| 2026-04-21 22:19 | 56.00919 | -3.28035 | 4341 ft | 252 kts | 1° |
| 2026-04-21 22:19 | 56.02611 | -3.29179 | 5217 ft | 275 kts | 324° |
| 2026-04-21 22:20 | 56.03721 | -3.32011 | 6198 ft | 288 kts | 289° |
| 2026-04-21 22:20 | 56.03848 | -3.35599 | 7191 ft | 294 kts | 259° |
| 2026-04-21 22:20 | 56.03311 | -3.39127 | 8201 ft | 296 kts | 248° |
| 2026-04-21 22:20 | 56.02559 | -3.42564 | 9229 ft | 298 kts | 245° |
| 2026-04-21 22:21 | 56.01786 | -3.46036 | 10234 ft | 303 kts | 247° |
| 2026-04-21 22:21 | 56.01062 | -3.49637 | 10921 ft | 318 kts | 249° |
| 2026-04-21 22:21 | 56.00372 | -3.53536 | 11395 ft | 337 kts | 252° |
| 2026-04-21 22:21 | 55.99734 | -3.57622 | 12221 ft | 344 kts | 253° |
| 2026-04-21 22:22 | 55.99134 | -3.61780 | 13126 ft | 348 kts | 254° |
| 2026-04-21 22:22 | 55.98549 | -3.66000 | 14025 ft | 352 kts | 255° |
| 2026-04-21 22:22 | 55.97964 | -3.70260 | 14817 ft | 356 kts | 255° |
| 2026-04-21 22:22 | 55.97364 | -3.74578 | 15606 ft | 359 kts | 255° |
| 2026-04-21 22:23 | 55.96749 | -3.78914 | 16409 ft | 362 kts | 254° |
| 2026-04-21 22:23 | 55.96118 | -3.83285 | 17168 ft | 365 kts | 254° |
| 2026-04-21 22:23 | 55.95475 | -3.87691 | 17938 ft | 369 kts | 253° |
| 2026-04-21 22:23 | 55.94822 | -3.92139 | 18417 ft | 372 kts | 253° |
| 2026-04-21 22:24 | 55.94158 | -3.96598 | 18538 ft | 371 kts | 251° |
| 2026-04-21 22:24 | 55.93109 | -4.00771 | 18547 ft | 369 kts | 236° |
| 2026-04-21 22:24 | 55.91506 | -4.04310 | 18544 ft | 365 kts | 220° |
| 2026-04-21 22:24 | 55.89497 | -4.07050 | 18544 ft | 363 kts | 211° |
| 2026-04-21 22:25 | 55.87415 | -4.09590 | 18544 ft | 363 kts | 212° |
| 2026-04-21 22:25 | 55.85336 | -4.12135 | 18545 ft | 363 kts | 212° |
| 2026-04-21 22:25 | 55.83251 | -4.14685 | 18544 ft | 363 kts | 212° |
| 2026-04-21 22:25 | 55.81168 | -4.17230 | 18542 ft | 363 kts | 212° |
| 2026-04-21 22:26 | 55.79088 | -4.19773 | 18542 ft | 363 kts | 212° |
| 2026-04-21 22:26 | 55.77009 | -4.22328 | 18542 ft | 363 kts | 212° |
| 2026-04-21 22:26 | 55.74939 | -4.24899 | 18542 ft | 363 kts | 212° |
| 2026-04-21 22:26 | 55.72873 | -4.27471 | 18542 ft | 363 kts | 212° |
| 2026-04-21 22:27 | 55.70803 | -4.30046 | 18553 ft | 363 kts | 212° |
| 2026-04-21 22:27 | 55.68733 | -4.32617 | 18538 ft | 363 kts | 213° |
| 2026-04-21 22:27 | 55.66665 | -4.35182 | 18539 ft | 363 kts | 212° |
| 2026-04-21 22:27 | 55.64598 | -4.37747 | 18535 ft | 363 kts | 213° |
| 2026-04-21 22:28 | 55.62532 | -4.40308 | 18535 ft | 363 kts | 211° |
| 2026-04-21 22:28 | 55.60459 | -4.42868 | 18533 ft | 363 kts | 212° |
| 2026-04-21 22:28 | 55.58386 | -4.45416 | 18528 ft | 363 kts | 212° |
| 2026-04-21 22:28 | 55.56311 | -4.47963 | 18521 ft | 364 kts | 212° |
| 2026-04-21 22:29 | 55.54225 | -4.50521 | 18517 ft | 365 kts | 212° |
| 2026-04-21 22:29 | 55.52845 | -4.52212 | 18518 ft | 365 kts | 212° |
| 2026-04-21 22:29 | 55.50757 | -4.54762 | 18516 ft | 365 kts | 212° |
| 2026-04-21 22:29 | 55.48668 | -4.57310 | 18517 ft | 366 kts | 212° |
| 2026-04-21 22:30 | 55.46576 | -4.59867 | 18519 ft | 365 kts | 213° |
| 2026-04-21 22:30 | 55.44489 | -4.62420 | 18519 ft | 365 kts | 212° |
| 2026-04-21 22:30 | 55.42404 | -4.64961 | 18520 ft | 364 kts | 213° |
| 2026-04-21 22:30 | 55.40324 | -4.67488 | 18517 ft | 363 kts | 213° |
| 2026-04-21 22:31 | 55.38244 | -4.70011 | 18510 ft | 363 kts | 213° |
| 2026-04-21 22:31 | 55.36172 | -4.72521 | 18502 ft | 362 kts | 211° |
| 2026-04-21 22:31 | 55.34097 | -4.75033 | 18504 ft | 362 kts | 213° |
| 2026-04-21 22:31 | 55.32024 | -4.77544 | 18502 ft | 362 kts | 211° |
| 2026-04-21 22:32 | 55.29839 | -4.79719 | 18505 ft | 360 kts | 205° |
| 2026-04-21 22:32 | 55.27600 | -4.81687 | 18501 ft | 360 kts | 204° |
| 2026-04-21 22:32 | 55.25361 | -4.83656 | 18495 ft | 361 kts | 205° |
| 2026-04-21 22:32 | 55.23289 | -4.86154 | 18491 ft | 364 kts | 223° |
| 2026-04-21 22:33 | 55.21654 | -4.89543 | 18497 ft | 365 kts | 229° |
| 2026-04-21 22:33 | 55.20079 | -4.93051 | 18494 ft | 366 kts | 229° |
| 2026-04-21 22:33 | 55.18506 | -4.96567 | 18496 ft | 366 kts | 229° |
| 2026-04-21 22:33 | 55.16940 | -5.00070 | 18496 ft | 365 kts | 230° |
| 2026-04-21 22:34 | 55.15374 | -5.03576 | 18493 ft | 364 kts | 231° |
| 2026-04-21 22:34 | 55.13817 | -5.07053 | 18485 ft | 362 kts | 229° |
| 2026-04-21 22:34 | 55.12262 | -5.10509 | 18485 ft | 362 kts | 229° |
| 2026-04-21 22:34 | 55.10706 | -5.13954 | 18484 ft | 361 kts | 230° |
| 2026-04-21 22:35 | 55.09144 | -5.17400 | 18486 ft | 362 kts | 229° |
| 2026-04-21 22:35 | 55.07581 | -5.20841 | 18485 ft | 362 kts | 230° |
| 2026-04-21 22:35 | 55.06022 | -5.24279 | 18486 ft | 361 kts | 230° |
| 2026-04-21 22:35 | 55.04463 | -5.27720 | 18474 ft | 361 kts | 230° |
| 2026-04-21 22:36 | 55.01343 | -5.34592 | 18473 ft | 361 kts | 230° |
| 2026-04-21 22:36 | 54.99780 | -5.38025 | 18474 ft | 361 kts | 229° |
| 2026-04-21 22:36 | 54.98217 | -5.41447 | 18475 ft | 362 kts | 229° |
| 2026-04-21 22:37 | 54.96652 | -5.44874 | 18474 ft | 361 kts | 229° |
| 2026-04-21 22:37 | 54.95087 | -5.48303 | 18473 ft | 362 kts | 230° |
| 2026-04-21 22:37 | 54.93516 | -5.51744 | 18471 ft | 364 kts | 229° |
| 2026-04-21 22:37 | 54.91938 | -5.55190 | 18469 ft | 365 kts | 229° |
| 2026-04-21 22:38 | 54.90354 | -5.58630 | 18466 ft | 364 kts | 229° |
| 2026-04-21 22:38 | 54.88778 | -5.62045 | 18405 ft | 358 kts | 229° |
| 2026-04-21 22:38 | 54.87265 | -5.65329 | 18248 ft | 338 kts | 228° |
| 2026-04-21 22:38 | 54.85844 | -5.68424 | 18053 ft | 320 kts | 228° |
| 2026-04-21 22:39 | 54.84474 | -5.71397 | 17569 ft | 313 kts | 229° |
| 2026-04-21 22:39 | 54.83118 | -5.74321 | 16989 ft | 309 kts | 228° |
| 2026-04-21 22:39 | 54.81773 | -5.77222 | 16398 ft | 308 kts | 228° |
| 2026-04-21 22:39 | 54.80435 | -5.80106 | 15848 ft | 306 kts | 228° |
| 2026-04-21 22:40 | 54.79104 | -5.82971 | 15309 ft | 304 kts | 227° |
| 2026-04-21 22:40 | 54.77782 | -5.85814 | 14775 ft | 302 kts | 227° |
| 2026-04-21 22:40 | 54.76464 | -5.88649 | 14248 ft | 301 kts | 227° |
| 2026-04-21 22:40 | 54.75154 | -5.91461 | 13671 ft | 299 kts | 227° |
| 2026-04-21 22:41 | 54.73848 | -5.94257 | 13083 ft | 298 kts | 227° |
| 2026-04-21 22:41 | 54.72551 | -5.97034 | 12562 ft | 296 kts | 227° |
| 2026-04-21 22:41 | 54.71257 | -5.99805 | 12422 ft | 296 kts | 227° |
| 2026-04-21 22:41 | 54.69957 | -6.02580 | 12437 ft | 298 kts | 227° |
| 2026-04-21 22:42 | 54.68662 | -6.05337 | 12096 ft | 299 kts | 227° |
| 2026-04-21 22:42 | 54.67350 | -6.08137 | 11586 ft | 294 kts | 227° |
| 2026-04-21 22:42 | 54.66075 | -6.10861 | 11240 ft | 284 kts | 226° |
| 2026-04-21 22:42 | 54.64718 | -6.13041 | 11109 ft | 257 kts | 202° |
| 2026-04-21 22:43 | 54.63118 | -6.13885 | 10978 ft | 230 kts | 182° |
| 2026-04-21 22:43 | 54.61583 | -6.14192 | 10845 ft | 215 kts | 179° |
| 2026-04-21 22:43 | 54.60067 | -6.14446 | 10362 ft | 219 kts | 179° |
| 2026-04-21 22:43 | 54.58548 | -6.14687 | 9796 ft | 225 kts | 179° |
| 2026-04-21 22:44 | 54.56948 | -6.14932 | 9192 ft | 231 kts | 179° |
| 2026-04-21 22:44 | 54.55330 | -6.15177 | 8591 ft | 236 kts | 179° |
| 2026-04-21 22:44 | 54.53709 | -6.15859 | 7986 ft | 249 kts | 201° |
| 2026-04-21 22:44 | 54.52400 | -6.17868 | 7479 ft | 260 kts | 234° |
| 2026-04-21 22:45 | 54.51846 | -6.20804 | 7103 ft | 260 kts | 262° |
| 2026-04-21 22:45 | 54.51684 | -6.23873 | 6729 ft | 255 kts | 263° |
| 2026-04-21 22:45 | 54.51526 | -6.26857 | 6336 ft | 252 kts | 262° |
| 2026-04-21 22:45 | 54.51364 | -6.29858 | 5786 ft | 255 kts | 262° |
| 2026-04-21 22:46 | 54.51193 | -6.32993 | 4892 ft | 271 kts | 262° |
| 2026-04-21 22:46 | 54.51019 | -6.36202 | 4426 ft | 267 kts | 262° |
| 2026-04-21 22:46 | 54.50878 | -6.39367 | 3907 ft | 266 kts | 268° |
| 2026-04-21 22:46 | 54.51315 | -6.42411 | 3514 ft | 260 kts | 298° |
| 2026-04-21 22:47 | 54.52404 | -6.44745 | 3246 ft | 243 kts | 326° |
| 2026-04-21 22:47 | 54.53813 | -6.46116 | 2988 ft | 226 kts | 342° |
| 2026-04-21 22:47 | 54.55202 | -6.47234 | 2837 ft | 212 kts | 342° |
| 2026-04-21 22:47 | 54.56509 | -6.48196 | 2635 ft | 194 kts | 355° |
| 2026-04-21 22:48 | 54.57719 | -6.48133 | 2529 ft | 159 kts | 28° |
| 2026-04-21 22:48 | 54.58603 | -6.47257 | 2506 ft | 140 kts | 52° |
| 2026-04-21 22:48 | 54.59146 | -6.45957 | 2508 ft | 130 kts | 71° |
| 2026-04-21 22:48 | 54.59526 | -6.44550 | 2511 ft | 130 kts | 72° |
| 2026-04-21 22:49 | 54.59909 | -6.43150 | 2509 ft | 125 kts | 71° |
| 2026-04-21 22:49 | 54.60273 | -6.41836 | 2475 ft | 119 kts | 71° |
| 2026-04-21 22:49 | 54.60647 | -6.40588 | 2312 ft | 114 kts | 71° |
| 2026-04-21 22:49 | 54.61011 | -6.39382 | 2239 ft | 113 kts | 71° |
| 2026-04-21 22:50 | 54.61348 | -6.38175 | 2124 ft | 111 kts | 74° |
| 2026-04-21 22:50 | 54.61636 | -6.36951 | 1900 ft | 109 kts | 74° |
| 2026-04-21 22:50 | 54.61942 | -6.35761 | 1831 ft | 109 kts | 71° |
| 2026-04-21 22:50 | 54.62269 | -6.34584 | 1742 ft | 109 kts | 71° |
| 2026-04-21 22:51 | 54.62594 | -6.33403 | 1618 ft | 109 kts | 71° |
| 2026-04-21 22:51 | 54.62904 | -6.32208 | 1443 ft | 111 kts | 73° |
| 2026-04-21 22:51 | 54.63221 | -6.30966 | 1178 ft | 115 kts | 70° |
| 2026-04-21 22:51 | 54.63558 | -6.29710 | 1055 ft | 116 kts | 68° |
| 2026-04-21 22:52 | 54.63918 | -6.28423 | 844 ft | 122 kts | 69° |
| 2026-04-21 22:52 | 54.64263 | -6.27098 | 757 ft | 123 kts | 68° |
| 2026-04-21 22:52 | 54.64619 | -6.25740 | 622 ft | 123 kts | 67° |
| 2026-04-21 22:52 | 54.64984 | -6.24409 | 454 ft | 123 kts | 68° |
| 2026-04-21 22:53 | 54.65340 | -6.23104 | 304 ft | 118 kts | 68° |
| 2026-04-21 22:53 | 54.65643 | -6.21967 | 273 ft | 86 kts | 64° |
| 2026-04-21 22:53 | 54.65780 | -6.21467 | 272 ft | 25 kts | 65° |
| 2026-04-21 22:53 | 54.65884 | -6.21338 | 272 ft | 19 kts | 343° |
| 2026-04-21 22:54 | 54.65941 | -6.21385 | 272 ft | 6 kts | 335° |
| 2026-04-21 22:54 | 54.65965 | -6.21445 | 272 ft | 7 kts | 286° |
| 2026-04-21 22:54 | 54.65950 | -6.21525 | 275 ft | 8 kts | 250° |
| 2026-04-21 22:54 | 54.65936 | -6.21579 | 275 ft | 0 kts | 241° |
| 2026-04-21 22:55 | 54.65932 | -6.21590 | 275 ft | 2 kts | 243° |
| 2026-04-21 22:55 | 54.65934 | -6.21605 | 274 ft | 1 kts | 298° |
| 2026-04-21 22:55 | 54.65945 | -6.21604 | 272 ft | 4 kts | 0° |
| 2026-04-21 22:55 | 54.65983 | -6.21614 | 272 ft | 7 kts | 342° |
| 2026-04-21 22:56 | 54.66027 | -6.21648 | 272 ft | 6 kts | 331° |
| 2026-04-21 22:56 | 54.66044 | -6.21698 | 272 ft | 4 kts | 287° |
| 2026-04-21 22:56 | 54.66056 | -6.21773 | 274 ft | 4 kts | 285° |
| 2026-04-21 22:56 | 54.66059 | -6.21789 | 275 ft | 0 kts | 284° |
| 2026-04-21 22:57 | 54.66059 | -6.21793 | 275 ft | 0 kts | 284° |
| 2026-04-21 22:57 | 54.66060 | -6.21796 | 274 ft | 0 kts | 284° |